チューリッヒ の空港の天気 - METARとTAF

チューリヒ国際空港 ( LSZH / ZRH ) - スイス チューリッヒ
飛行場実況気象(Metar)
観測時間11/27 09:20 CET (11/27 08:20 UTC)
風向・風速東南東 2m/s
視程3000m
天気現象もや
全天を覆う雲 雲底高度 60m
気温2℃
湿度93%
気圧1027hPa
METARLSZH 270820Z 11004KT 3000 1200N R14/P2000N R16/P2000N R28/P2000N R34/P2000N BR OVC002 02/01 Q1027 TEMPO 1200 OVC001
過去の天気等 Google飛行場航空写真 Wunderground天気予報

過去48時間のMETAR

飛行場予報(TAF)
発表時間: 11/27 06:25 CET (11/27 05:25 UTC)
予報対象時間: 27日7時 CET ~ 28日13時 CET
風向・風速不定 1m/s
視程5000m
天気現象もや
全天の4割程度の雲 雲底高度 120m
全天を覆う雲 雲底高度 240m
27日7時 CET ~ 27日9時 CET に 確率 30% で一時的に
全天の8割程度の雲 雲底高度 90m
27日12時 CET ~ 27日15時 CET に徐々に
少しの雲 雲底高度 300m
27日22時 CET ~ 28日7時 CET に 確率 40% で一時的に
視程4000m
天気現象もや
TAF LSZH 270525Z 2706/2812 VRB02KT 5000 BR SCT004 OVC008 TX05/2714Z TN02/2706Z TN01/2806Z
PROB30 TEMPO 2706/2708 BKN003
BECMG 2711/2714 FEW010
PROB40 TEMPO 2721/2806 4000 BR